• Join FlightAware (Why Join?)
  • Login
  • US Flag 
04:26PM EDT


 

Airport Tracker/Info


-or-


 

Live Flight TrackerFlight Track Log ✈ SWA580 ✈ 22-Apr-2013 ✈ KSTL - KHOU

Flight Track Log - Related Links

Times and Time Zones

All times are in EDT time to prevent confusion due to time zone crossing. See the SWA580 flight status page for this flight to view local times or setup timezone preferences in your user account.

Time Position Orientation Groundspeed Altitude Reporting Facility
EDT Latitude Longitude Course Direction KTS MPH feet Rate Location/Type
05:05PM 38.7172 -90.2558 109° East 171 197 2,500  Level FAA TRACON SMA TRACON (SMA)
05:05PM 38.7064 -90.2392 130° Southeast 193 222 3,600 2,700 Climbing FAA TRACON SMA TRACON (SMA)
05:05PM 38.6925 -90.2256 143° Southeast 208 239 4,300 2,100 Climbing FAA TRACON SMA TRACON (SMA)
05:06PM 38.6672 -90.2253 180° South 237 273 5,000 2,700 Climbing FAA TRACON SMA TRACON (SMA)
05:06PM 38.6464 -90.2325 195° South 250 288 6,200 3,060 Climbing FAA TRACON SMA TRACON (SMA)
05:06PM 38.6261 -90.2422 201° Southwest 254 292 7,000 3,480 Climbing FAA TRACON SMA TRACON (SMA)
05:07PM 38.6078 -90.2597 217° Southwest 264 304 8,500 4,620 Climbing FAA TRACON SMA TRACON (SMA)
05:07PM 38.5850 -90.2825 218° Southwest 268 308 10,100 3,480 Climbing FAA TRACON SMA TRACON (SMA)
05:07PM 38.5661 -90.3019 219° Southwest 279 321 10,800 1,800 Climbing FAA TRACON SMA TRACON (SMA)
05:08PM 38.5394 -90.3306 220° Southwest 317 365 11,400 2,580 Climbing FAA TRACON SMA TRACON (SMA)
05:08PM 38.5164 -90.3542 219° Southwest 341 392 12,600 3,660 Climbing FAA TRACON SMA TRACON (SMA)
05:08PM 38.4933 -90.3781 219° Southwest 348 400 13,800 3,420 Climbing FAA TRACON SMA TRACON (SMA)
05:09PM 38.4697 -90.4025 219° Southwest 353 406 14,900 3,720 Climbing FAA TRACON SMA TRACON (SMA)
05:09PM 38.4397 -90.4347 220° Southwest 360 414 16,300 3,420 Climbing FAA TRACON SMA TRACON (SMA)
05:09PM 38.4153 -90.4600 219° Southwest 367 422 17,200 2,520 Climbing FAA TRACON SMA TRACON (SMA)
05:10PM 38.3903 -90.4869 220° Southwest 377 434 18,000 2,820 Climbing FAA TRACON SMA TRACON (SMA)
05:10PM 38.3578 -90.5200 219° Southwest 387 445 19,100 2,880 Climbing FAA TRACON SMA TRACON (SMA)
05:10PM 38.3319 -90.5475 220° Southwest 394 453 20,000 2,820 Climbing FAA TRACON SMA TRACON (SMA)
05:11PM 38.3050 -90.5750 219° Southwest 399 459 21,000 3,300 Climbing FAA TRACON SMA TRACON (SMA)
05:11PM 38.2717 -90.6103 220° Southwest 404 465 22,100 3,120 Climbing FAA TRACON SMA TRACON (SMA)
05:11PM 38.2450 -90.6394 221° Southwest 408 470 23,100 2,580 Climbing FAA TRACON SMA TRACON (SMA)
05:12PM 38.2175 -90.6672 218° Southwest 410 472 23,900 2,700 Climbing FAA TRACON SMA TRACON (SMA)
05:12PM 38.1825 -90.7025 218° Southwest 415 478 24,900 2,580 Climbing FAA TRACON SMA TRACON (SMA)
05:12PM 38.1511 -90.7253 210° Southwest 421 484 25,600 2,100 Climbing FAA TRACON SMA TRACON (SMA)
05:13PM 38.1172 -90.7442 204° Southwest 429 494 26,300 2,040 Climbing FAA TRACON SMA TRACON (SMA)
05:13PM 38.0728 -90.7628 198° South 436 502 27,000 1,920 Climbing FAA TRACON SMA TRACON (SMA)
05:13PM 38.0353 -90.7744 194° South 444 511 27,600 1,800 Climbing FAA TRACON SMA TRACON (SMA)
05:14PM 37.9983 -90.7897 198° South 450 518 28,200 2,160 Climbing FAA TRACON SMA TRACON (SMA)
05:14PM 37.9525 -90.8097 199° South 453 521 29,100 2,460 Climbing FAA TRACON SMA TRACON (SMA)
05:14PM 37.9158 -90.8253 199° South 453 521 29,900 2,220 Climbing FAA TRACON SMA TRACON (SMA)
05:15PM 37.8792 -90.8406 198° South 451 519 30,600 2,460 Climbing FAA TRACON SMA TRACON (SMA)
05:15PM 37.8342 -90.8600 199° South 448 516 31,600 1,920 Climbing FAA TRACON SMA TRACON (SMA)
05:16PM 37.7956 -90.9253 233° Southwest 449 517 32,400 1,440 Climbing Kansas City Center
05:17PM 37.6539 -90.9817 197° South 446 513 34,000 1,440 Climbing Kansas City Center
05:18PM 37.5356 -91.0292 198° South 447 514 35,400 1,500 Climbing Kansas City Center
05:19PM 37.4200 -91.0789 199° South 443 510 37,100 1,440 Climbing Kansas City Center
05:20PM 37.2997 -91.1294 198° South 444 511 38,400 1,140 Climbing Kansas City Center
05:21PM 37.1808 -91.1792 198° South 446 513 39,500 720 Climbing Kansas City Center
05:22PM 37.0603 -91.2294 198° South 450 518 40,000 240 Climbing Kansas City Center
05:23PM 36.9156 -91.2875 198° South 452 520 40,000  Level Kansas City Center
05:24PM 36.7931 -91.3381 198° South 454 522 40,000  Level Kansas City Center
05:25PM 36.6692 -91.3917 199° South 468 539 40,000  Level Memphis Center
05:26PM 36.5458 -91.4417 198° South 468 539 40,000  Level Memphis Center
05:27PM 36.4203 -91.4942 199° South 468 539 40,000  Level Memphis Center
05:28PM 36.2989 -91.5417 198° South 468 539 40,000  Level Memphis Center
05:29PM 36.1797 -91.5911 199° South 463 533 40,000  Level Memphis Center
05:30PM 36.0583 -91.6381 197° South 469 540 40,000  Level Memphis Center
05:31PM 35.9306 -91.6900 198° South 463 533 40,000  Level Memphis Center
05:32PM 35.8111 -91.7367 198° South 458 527 40,000  Level Memphis Center
05:33PM 35.6897 -91.7858 198° South 458 527 40,000  Level Memphis Center
05:34PM 35.5703 -91.8297 197° South 458 527 40,000  Level Memphis Center
05:35PM 35.4550 -91.8761 198° South 453 521 40,000  Level Memphis Center
05:36PM 35.3356 -91.9225 198° South 447 514 40,000  Level Memphis Center
05:37PM 35.2181 -91.9711 199° South 447 514 40,000  Level Memphis Center
05:38PM 35.1008 -92.0144 197° South 447 514 40,000  Level Memphis Center
05:39PM 34.9875 -92.0603 198° South 441 507 40,000  Level Memphis Center
05:40PM 34.8681 -92.1036 197° South 446 513 40,000  Level Memphis Center
05:41PM 34.7525 -92.1492 198° South 446 513 40,000  Level Memphis Center
05:42PM 34.6311 -92.1819 193° South 446 513 40,000  Level Memphis Center
05:43PM 34.5306 -92.2025 190° South 446 513 40,000  Level Memphis Center
05:45PM 34.2800 -92.2514 189° South 438 504 40,000  Level Fort Worth Center
05:46PM 34.1475 -92.2792 190° South 438 504 40,000  Level Fort Worth Center
05:47PM 34.0233 -92.3017 189° South 448 516 40,000  Level Fort Worth Center
05:48PM 33.8989 -92.3214 187° South 448 516 40,000  Level Fort Worth Center
05:49PM 33.7769 -92.3461 190° South 448 516 40,000  Level Fort Worth Center
05:50PM 33.6589 -92.3678 189° South 441 507 40,000  Level Fort Worth Center
05:51PM 33.5386 -92.3897 189° South 441 507 40,000 -300 Level Fort Worth Center
05:52PM 33.4183 -92.4114 189° South 441 507 39,400 -1,020 Descending Fort Worth Center
05:53PM 33.2900 -92.4336 188° South 448 516 38,000 -720 Descending Fort Worth Center
05:54PM 33.1594 -92.4558 188° South 470 541 38,000  Level Fort Worth Center
05:55PM 33.0289 -92.4806 189° South 476 548 38,000  Level Fort Worth Center
05:57PM 32.8431 -92.5181 190° South 473 544 38,000  Level Houston Center
05:58PM 32.6881 -92.5475 189° South 471 542 38,000  Level Houston Center
05:59PM 32.5858 -92.6042 205° Southwest 453 521 38,000  Level Houston Center
06:00PM 32.4881 -92.7064 221° Southwest 435 501 38,000  Level Houston Center
06:01PM 32.3939 -92.7933 218° Southwest 430 495 38,000  Level Houston Center
06:02PM 32.3003 -92.8822 219° Southwest 432 497 38,000  Level Houston Center
06:03PM 32.1875 -92.9864 218° Southwest 431 496 38,000  Level Houston Center
06:04PM 32.0944 -93.0725 218° Southwest 427 491 38,000  Level Houston Center
06:05PM 32.0036 -93.1542 217° Southwest 419 482 38,000  Level Houston Center
06:06PM 31.9106 -93.2394 218° Southwest 424 488 38,000  Level Houston Center
06:07PM 31.8203 -93.3236 218° Southwest 420 483 38,000  Level Houston Center
06:08PM 31.7289 -93.4061 218° Southwest 417 480 38,000  Level Houston Center
06:09PM 31.6200 -93.5064 218° Southwest 417 480 38,000  Level Houston Center
06:10PM 31.5236 -93.5931 217° Southwest 417 480 38,000  Level Houston Center
06:11PM 31.4344 -93.6811 220° Southwest 418 481 38,000  Level Houston Center
06:12PM 31.3478 -93.7703 221° Southwest 414 476 38,000  Level Houston Center
06:13PM 31.2536 -93.8656 221° Southwest 416 479 38,000  Level Houston Center
06:14PM 31.1706 -93.9481 220° Southwest 417 480 38,000  Level Houston Center
06:15PM 31.0831 -94.0367 221° Southwest 414 476 38,000 -780 Level Houston Center
06:16PM 30.9956 -94.1239 221° Southwest 414 476 36,400 -2,760 Descending Houston Center
06:17PM 30.8908 -94.2292 221° Southwest 411 473 32,300 -3,780 Descending Houston Center
06:18PM 30.7997 -94.3203 221° Southwest 423 487 28,600 -3,360 Descending Houston Center
06:19PM 30.7081 -94.4117 221° Southwest 432 497 25,400 -3,120 Descending Houston Center
06:20PM 30.6156 -94.5064 221° Southwest 433 498 22,300 -2,940 Descending Houston Center
06:21PM 30.5283 -94.5903 220° Southwest 416 479 19,400 -3,000 Descending Houston Center
06:22PM 30.4372 -94.6800 220° Southwest 391 450 16,300 -2,940 Descending Houston Center
06:23PM 30.3622 -94.7547 221° Southwest 380 437 13,800 -1,680 Descending Houston Center
06:24PM 30.2864 -94.8394 224° Southwest 324 373 12,900 -900 Descending Houston Center
06:25PM 30.2297 -94.9289 234° Southwest 326 375 11,900 -1,080 Descending Houston Center
06:26PM 30.1747 -95.0133 233° Southwest 330 380 10,800 -1,020 Descending Houston Center
06:27PM 30.1178 -95.0783 225° Southwest 304 350 10,000 -420 Descending Houston Center
06:28PM 30.0308 -95.1156 200° South 340 391 10,000 -360 Level Houston Center
06:29PM 29.9461 -95.1525 201° Southwest 303 349 9,300 -900 Descending Houston Center
06:30PM 29.8639 -95.1697 190° South 302 348 8,200 -720 Descending Houston Center
06:32PM 29.7711 -95.1908 191° South 289 333 7,800 -900 Descending Houston Center
06:33PM 29.6953 -95.2097 192° South 279 321 6,400 -900 Descending Houston Center
06:34PM 29.6122 -95.2281 191° South 260 299 5,900 -240 Descending Houston Center
06:35PM 29.5567 -95.2450 195° South 220 253 5,900 -300 Level Houston Center
06:36PM 29.5236 -95.2833 225° Southwest 202 232 5,400 -720 Descending Houston Center
06:36PM 29.5156 -95.2894 213° Southwest 204 235 5,200 -1,020 Descending Houston Center
06:37PM 29.5178 -95.3344 273° West 191 220 4,400 -1,080 Descending Houston Center
06:37PM 29.5222 -95.3422 303° West 200 230 4,100 -1,980 Descending Houston Center
06:38PM 29.5625 -95.3628 336° Northwest 191 220 2,400 -1,800 Descending Houston Center
06:38PM 29.5686 -95.3589 29° Northeast 200 230 2,300 -1,200 Descending Houston Center
06:39PM 29.5975 -95.3322 39° Northeast 146 168 1,200 -1,380 Descending Houston Center
06:39PM 29.6069 -95.3208 46° Northeast 165 190 900 -780 Descending Houston Center
06:40PM 29.6258 -95.3000 44° Northeast 142 163 400 -840 Descending Houston Center
06:40PM 29.6353 -95.2903 42° Northeast 149 171 100 -960 Descending Houston Center